Sevilla, España

4:28 PM CEST en Octubre 02, 2014 (GMT +0200)
San Pablo | Change Station
CLOSE
Current Station
Aeropuerto
Location: Sevilla,
Altura: 102 ft
Estaciones meteorológicas cercanas

Alt 102 ft 37.42 °N, 5.89 °W | Updated 28 minutes ago

Clear
Despejado
86 ° F
Sensación térmica 85 ° F
N
7
Viento Variable Viento desde Este
Gusts 18 mph

Hoy
Alta -- | Baja -- ° F
--% Posibilidad de precipitaciones
Ayer
Alta -- | Baja -- ° F
Precip. -- pul
8:19 AM 8:05 PM
Cuarto creciente, 59% visible
Presión 30.06 pul
Visibilidad -9999.0 Millas
Nubes
Índice de calor 85 ° F
Punto de rocío 59 ° F
Humedad 40%
Precipitaciones 0.00 pul
Espesor de la nieve No disponible.
UV No disponible.
Polen No disponible.
Calidad del aire No disponible.
Flu Activity No disponible.
METAR LEZL 021400Z 08006G16KT 050V160 CAVOK 30/15 Q1018 NOSIG

More Conditions Fewer Conditions

Presión 30.06 pul
Visibilidad -9999.0 Millas
Nubes
Índice de calor 85 ° F
Punto de rocío 59 ° F
Humedad 40%
Precipitaciones 0.00 pul
Espesor de la nieve No disponible.
UV No disponible.
Polen No disponible.
Calidad del aire No disponible.
Flu Activity No disponible.
METAR LEZL 021400Z 08006G16KT 050V160 CAVOK 30/15 Q1018 NOSIG

More Conditions Fewer Conditions

10-Day Weather Forecast

Almanac

Astronomía

Oct. 02, 2014 Salida Puesta
Hora real 8:19 AM CEST 8:05 PM CEST
Crepúsculo civil 7:53 AM CEST 8:31 PM CEST
Crepúsculo náutico 7:23 AM CEST 9:01 PM CEST
Crepúsculo astronómico 6:52 AM CEST 9:32 PM CEST
Luna 3:53 PM CEST 1:29 AM CEST
Horas de luz 12h 37m
Horas de luz
11h 45m
Tomorrow will be 2m 23s shorter.
Cuarto creciente, 59% of the Moon is Illuminated
Hoy
Cuarto creciente
Oct 8
Luna llena
Oct 15
Cuarto menguante
Oct 23
Nueva
Oct 30
Cuarto creciente

Extremos de hoy

Máximos del país Bajas del país

Community

WunderPhotos

Upload Photos

1,758,250 ¡fotos cargadas!

WunderBlogs® & News

By Dr. Jeff Masters
Director of Meteorology, Weather Underground
By Kari Strenfel
Meteorologist, Weather Underground
By Christopher C. Burt
Weather Historian, Weather Underground
October 2, 2014
October 2, 2014
October 2, 2014

Nearby

Calidad del aire

Not available.

Grosos de nieve

Not available.

Actividad de terremotos

Ciudad Distance Mag. Tiempo y dato
No hay informes recientes de la actividad sísmica.
Magnitud mínima muestra es 2,5.

Temperaturas de aguas costeras

Lugar Temperatura
Sin partes meteorológicos de las estaciones

Estaciones meteorológicas cercanas